createdAt,value
2018-08-23T00:01:26.000Z,23.00
2018-08-23T00:04:30.237Z,23.00
2018-08-23T00:07:35.254Z,22.90
2018-08-23T00:10:39.609Z,22.90
2018-08-23T00:13:44.263Z,22.90
2018-08-23T00:16:48.558Z,22.80
2018-08-23T00:19:52.982Z,22.80
2018-08-23T00:22:57.362Z,22.70
2018-08-23T00:26:01.837Z,22.70
2018-08-23T00:29:12.187Z,22.60
2018-08-23T00:32:23.101Z,22.60
2018-08-23T00:35:27.250Z,22.60
2018-08-23T00:38:31.459Z,22.60
2018-08-23T00:41:35.530Z,22.60
2018-08-23T00:44:55.053Z,22.60
2018-08-23T00:47:59.346Z,22.60
2018-08-23T00:51:05.559Z,22.50
2018-08-23T00:54:10.211Z,22.50
2018-08-23T00:57:14.753Z,22.50
2018-08-23T01:00:21.231Z,22.50
2018-08-23T01:03:25.633Z,22.40
2018-08-23T01:06:40.922Z,22.40
2018-08-23T01:09:45.654Z,22.30
2018-08-23T01:12:51.354Z,22.30
2018-08-23T01:15:55.855Z,22.30
2018-08-23T01:19:05.380Z,22.20
2018-08-23T01:22:09.701Z,22.30
2018-08-23T01:25:14.142Z,22.30
2018-08-23T01:28:18.346Z,22.20
2018-08-23T01:31:28.738Z,22.20
2018-08-23T01:34:32.870Z,22.20
2018-08-23T01:37:39.564Z,22.20
2018-08-23T01:40:43.844Z,22.30
2018-08-23T01:43:48.224Z,22.30
2018-08-23T01:46:52.452Z,22.30
2018-08-23T01:49:56.890Z,22.30
2018-08-23T01:53:01.066Z,22.30
2018-08-23T01:56:05.211Z,22.30
2018-08-23T01:59:09.662Z,22.30
2018-08-23T02:02:18.819Z,22.20
2018-08-23T02:05:23.095Z,22.20
2018-08-23T02:08:27.540Z,22.20
2018-08-23T02:11:31.883Z,22.20
2018-08-23T02:14:43.173Z,22.10
2018-08-23T02:17:50.658Z,22.10
2018-08-23T02:21:00.995Z,22.10
2018-08-23T02:24:05.347Z,22.10
2018-08-23T02:27:09.796Z,22.10
2018-08-23T02:30:14.422Z,22.00
2018-08-23T02:33:18.607Z,22.10
2018-08-23T02:36:24.047Z,22.10
2018-08-23T02:39:28.220Z,22.00
2018-08-23T02:42:32.356Z,22.00
2018-08-23T02:45:41.737Z,22.00
2018-08-23T02:48:46.074Z,22.00
2018-08-23T02:51:51.406Z,21.90
2018-08-23T02:54:55.618Z,21.80
2018-08-23T02:58:00.218Z,21.80
2018-08-23T03:01:05.836Z,21.80
2018-08-23T03:04:17.457Z,21.80
2018-08-23T03:07:23.166Z,21.80
2018-08-23T03:10:27.620Z,21.80
2018-08-23T03:13:34.043Z,21.80
2018-08-23T03:16:49.326Z,21.70
2018-08-23T03:20:10.460Z,21.70
2018-08-23T03:23:14.797Z,21.70
2018-08-23T03:26:19.083Z,21.70
2018-08-23T03:29:23.635Z,21.70
2018-08-23T03:32:28.221Z,21.70
2018-08-23T03:35:32.671Z,21.70
2018-08-23T03:38:36.863Z,21.60
2018-08-23T03:41:41.014Z,21.60
2018-08-23T03:44:45.315Z,21.60
2018-08-23T03:47:53.966Z,21.50
2018-08-23T03:50:58.591Z,21.50
2018-08-23T03:54:02.927Z,21.40
2018-08-23T03:57:15.861Z,21.40
2018-08-23T04:00:26.101Z,21.40
2018-08-23T04:03:30.439Z,21.40
2018-08-23T04:06:34.622Z,21.40
2018-08-23T04:09:39.061Z,21.30
2018-08-23T04:12:44.214Z,21.30
2018-08-23T04:15:48.307Z,21.30
2018-08-23T04:18:52.522Z,21.30
2018-08-23T04:21:56.951Z,21.20
2018-08-23T04:25:01.303Z,21.20
2018-08-23T04:28:05.631Z,21.30
2018-08-23T04:31:09.816Z,21.30
2018-08-23T04:34:14.247Z,21.30
2018-08-23T04:37:18.471Z,21.30
2018-08-23T04:40:22.749Z,21.30
2018-08-23T04:43:27.093Z,21.30
2018-08-23T04:46:33.686Z,21.30
2018-08-23T04:49:38.157Z,21.40
2018-08-23T04:52:42.591Z,21.40
2018-08-23T04:55:46.975Z,21.50
2018-08-23T04:58:51.315Z,21.50
2018-08-23T05:01:55.899Z,21.60
2018-08-23T05:05:00.155Z,21.60
2018-08-23T05:08:04.376Z,21.60
2018-08-23T05:11:08.680Z,21.70
2018-08-23T05:14:13.313Z,21.80
2018-08-23T05:17:17.658Z,21.90
2018-08-23T05:20:22.182Z,22.00
2018-08-23T05:23:26.446Z,22.10
2018-08-23T05:26:30.795Z,22.30
2018-08-23T05:29:34.927Z,22.50
2018-08-23T05:32:39.110Z,22.70
2018-08-23T05:35:43.383Z,22.80
2018-08-23T05:38:47.628Z,22.90
2018-08-23T05:41:52.436Z,23.10
2018-08-23T05:44:56.769Z,23.30
2018-08-23T05:48:02.163Z,23.50
2018-08-23T05:51:14.276Z,23.80
2018-08-23T05:54:18.575Z,24.20
2018-08-23T05:57:22.490Z,24.70
2018-08-23T06:00:26.462Z,25.10
2018-08-23T06:03:30.331Z,25.60
2018-08-23T06:06:34.719Z,26.30
2018-08-23T06:09:40.938Z,27.00
2018-08-23T06:12:44.824Z,27.80
2018-08-23T06:15:53.690Z,28.40
2018-08-23T06:18:58.581Z,29.10
2018-08-23T06:22:02.596Z,29.60
2018-08-23T06:25:06.507Z,30.30
2018-08-23T06:28:18.551Z,31.00
2018-08-23T06:31:22.511Z,31.50
2018-08-23T06:34:27.570Z,32.00
2018-08-23T06:37:31.477Z,32.50
2018-08-23T06:40:35.367Z,33.10
2018-08-23T06:43:39.309Z,33.60
2018-08-23T06:46:43.162Z,34.30
2018-08-23T06:49:48.412Z,34.70
2018-08-23T06:52:52.321Z,35.40
2018-08-23T06:55:56.263Z,36.10
2018-08-23T06:59:00.251Z,36.20
2018-08-23T07:02:04.187Z,36.80
2018-08-23T07:05:08.412Z,37.50
2018-08-23T07:08:12.709Z,38.30
2018-08-23T07:11:20.926Z,38.80
2018-08-23T07:14:26.864Z,39.30
2018-08-23T07:17:33.105Z,40.20
2018-08-23T07:20:37.786Z,40.90
2018-08-23T07:23:42.027Z,41.60
2018-08-23T07:26:46.306Z,42.40
2018-08-23T07:29:56.911Z,43.10
2018-08-23T07:33:00.840Z,43.70
2018-08-23T07:36:26.032Z,44.40
2018-08-23T07:39:29.937Z,44.10
2018-08-23T07:42:34.845Z,44.20
2018-08-23T07:45:39.107Z,44.50
2018-08-23T07:48:43.164Z,44.90
2018-08-23T07:51:47.261Z,45.50
2018-08-23T07:54:51.200Z,46.30
2018-08-23T07:57:55.062Z,47.00
2018-08-23T08:00:59.067Z,47.30
2018-08-23T08:04:03.027Z,47.60
2018-08-23T08:07:10.121Z,48.40
2018-08-23T08:10:20.169Z,49.30
2018-08-23T08:13:24.072Z,50.00
2018-08-23T08:16:32.827Z,50.70
2018-08-23T08:19:40.804Z,51.10
2018-08-23T08:22:44.791Z,51.40
2018-08-23T08:25:48.873Z,50.90
2018-08-23T08:28:52.807Z,51.50
2018-08-23T08:31:56.724Z,52.30
2018-08-23T08:35:00.629Z,52.30
2018-08-23T08:38:04.524Z,52.70
2018-08-23T08:41:08.516Z,53.40
2018-08-23T08:44:12.550Z,54.30
2018-08-23T08:47:16.464Z,54.70
2018-08-23T08:50:20.352Z,55.10
2018-08-23T08:53:24.248Z,55.60
2018-08-23T08:56:33.868Z,56.00
2018-08-23T08:59:37.851Z,56.40
2018-08-23T09:02:41.949Z,56.30
2018-08-23T09:05:45.891Z,55.70
2018-08-23T09:08:49.874Z,56.00
2018-08-23T09:11:53.786Z,56.40
2018-08-23T09:14:57.720Z,55.50
2018-08-23T09:18:01.627Z,52.20
2018-08-23T09:21:05.782Z,51.50
2018-08-23T09:24:25.519Z,50.60
2018-08-23T09:27:29.410Z,49.50
2018-08-23T09:30:33.762Z,46.80
2018-08-23T09:33:37.741Z,45.30
2018-08-23T09:36:42.493Z,44.40
2018-08-23T09:39:47.203Z,43.30
2018-08-23T09:42:51.648Z,42.30
2018-08-23T09:45:55.588Z,41.50
2018-08-23T09:48:59.584Z,40.40
2018-08-23T09:52:10.018Z,39.60
2018-08-23T09:55:17.981Z,39.10
2018-08-23T09:58:27.090Z,38.30
2018-08-23T10:01:35.999Z,37.60
2018-08-23T10:04:45.943Z,37.20
2018-08-23T10:10:02.393Z,36.50
2018-08-23T10:13:11.509Z,36.10
2018-08-23T10:16:20.570Z,35.50
2018-08-23T10:19:29.579Z,35.10
2018-08-23T10:22:33.535Z,35.00
2018-08-23T10:25:43.059Z,35.00
2018-08-23T10:28:50.784Z,34.60
2018-08-23T10:31:54.723Z,34.70
2018-08-23T10:34:58.619Z,34.70
2018-08-23T10:38:02.814Z,34.60
2018-08-23T10:41:07.147Z,34.60
2018-08-23T10:44:11.643Z,34.60
2018-08-23T10:48:19.316Z,34.60
2018-08-23T10:51:23.664Z,34.80
2018-08-23T10:54:28.048Z,34.70
2018-08-23T10:57:32.396Z,34.50
2018-08-23T11:00:36.708Z,34.60
2018-08-23T11:03:41.134Z,34.70
2018-08-23T11:06:50.706Z,34.90
2018-08-23T11:10:00.086Z,35.10
2018-08-23T11:13:09.608Z,34.90
2018-08-23T11:16:19.130Z,35.00
2018-08-23T11:19:28.562Z,35.10
2018-08-23T11:22:37.733Z,35.20
2018-08-23T11:25:41.894Z,35.40
2018-08-23T11:28:46.331Z,35.40
2018-08-23T11:31:50.866Z,35.20
2018-08-23T11:34:55.255Z,34.50
2018-08-23T11:37:59.482Z,34.00
2018-08-23T11:41:03.590Z,34.10
2018-08-23T11:44:07.833Z,34.10
2018-08-23T11:47:12.106Z,33.90
2018-08-23T11:50:16.495Z,33.90
2018-08-23T11:53:20.608Z,34.10
2018-08-23T11:56:24.888Z,34.30
2018-08-23T11:59:28.785Z,34.60
2018-08-23T12:02:33.012Z,34.30
2018-08-23T12:05:37.354Z,34.30
2018-08-23T12:08:41.699Z,34.40
2018-08-23T12:11:46.039Z,34.70
2018-08-23T12:14:56.011Z,34.80
2018-08-23T12:18:00.605Z,34.90
2018-08-23T12:21:05.393Z,35.10
2018-08-23T12:24:10.640Z,34.80
2018-08-23T12:27:15.030Z,34.80
2018-08-23T12:30:19.344Z,34.80
2018-08-23T12:33:23.247Z,34.60
2018-08-23T12:36:32.671Z,34.40
2018-08-23T12:39:42.206Z,34.70
2018-08-23T12:42:50.938Z,34.90
2018-08-23T12:46:00.657Z,35.00
2018-08-23T12:49:04.926Z,35.10
2018-08-23T12:52:09.462Z,35.10
2018-08-23T12:55:13.746Z,35.20
2018-08-23T12:58:17.853Z,34.90
2018-08-23T13:01:21.851Z,35.00
2018-08-23T13:04:25.804Z,34.90
2018-08-23T13:07:29.594Z,34.90
2018-08-23T13:10:34.224Z,34.80
2018-08-23T13:13:38.561Z,34.60
2018-08-23T13:16:42.864Z,34.30
2018-08-23T13:19:47.213Z,34.20
2018-08-23T13:22:51.448Z,34.20
2018-08-23T13:25:56.838Z,34.10
2018-08-23T13:29:01.111Z,34.00
2018-08-23T13:32:05.564Z,34.00
2018-08-23T13:35:10.014Z,34.20
2018-08-23T13:38:14.512Z,34.20
2018-08-23T13:41:18.454Z,34.10
2018-08-23T13:44:22.940Z,33.90
2018-08-23T13:47:27.148Z,33.90
2018-08-23T13:50:31.598Z,33.90
2018-08-23T13:53:35.948Z,33.70
2018-08-23T13:56:40.035Z,33.60
2018-08-23T13:59:44.239Z,33.40
2018-08-23T14:02:48.150Z,33.40
2018-08-23T14:05:52.061Z,33.00
2018-08-23T14:08:55.957Z,33.10
2018-08-23T14:11:59.906Z,33.10
2018-08-23T14:15:04.199Z,33.20
2018-08-23T14:18:08.493Z,33.20
2018-08-23T14:21:12.789Z,33.10
2018-08-23T14:24:17.725Z,33.00
2018-08-23T14:27:23.849Z,32.90
2018-08-23T14:30:28.332Z,32.70
2018-08-23T14:33:32.778Z,32.60
2018-08-23T14:36:37.142Z,32.50
2018-08-23T14:39:41.313Z,32.50
2018-08-23T14:42:45.663Z,32.60
2018-08-23T14:45:49.935Z,32.50
2018-08-23T14:48:54.441Z,32.40
2018-08-23T14:51:58.598Z,32.50
2018-08-23T14:55:02.680Z,32.40
2018-08-23T14:58:07.479Z,32.40
2018-08-23T15:01:11.688Z,32.30
2018-08-23T15:04:16.458Z,32.20
2018-08-23T15:07:20.645Z,32.20
2018-08-23T15:10:25.095Z,32.10
2018-08-23T15:13:29.465Z,32.00
2018-08-23T15:16:33.742Z,32.00
2018-08-23T15:19:38.254Z,31.90
2018-08-23T15:22:42.579Z,31.80
2018-08-23T15:25:46.751Z,31.70
2018-08-23T15:28:51.081Z,31.70
2018-08-23T15:31:55.542Z,31.60
2018-08-23T15:34:59.867Z,31.50
2018-08-23T15:38:04.252Z,31.40
2018-08-23T15:41:08.689Z,31.40
2018-08-23T15:44:13.824Z,31.20
2018-08-23T15:47:18.175Z,31.30
2018-08-23T15:50:23.104Z,31.30
2018-08-23T15:53:27.462Z,31.40
2018-08-23T15:56:31.822Z,31.40
2018-08-23T15:59:36.216Z,31.30
2018-08-23T16:02:40.555Z,31.30
2018-08-23T16:05:44.785Z,31.40
2018-08-23T16:08:51.112Z,31.40
2018-08-23T16:11:55.430Z,31.40
2018-08-23T16:14:59.702Z,31.40
2018-08-23T16:18:09.179Z,31.40
2018-08-23T16:21:13.579Z,31.50
2018-08-23T16:24:18.073Z,31.50
2018-08-23T16:27:22.466Z,31.50
2018-08-23T16:30:27.050Z,31.50
2018-08-23T16:33:31.420Z,31.50
2018-08-23T16:36:35.762Z,31.50
2018-08-23T16:39:40.270Z,31.40
2018-08-23T16:42:44.436Z,31.40
2018-08-23T16:45:49.323Z,31.40
2018-08-23T16:48:53.636Z,31.40
2018-08-23T16:51:58.954Z,31.30
2018-08-23T16:55:04.790Z,31.30
2018-08-23T16:58:09.556Z,31.30
2018-08-23T17:01:14.081Z,31.30
2018-08-23T17:04:18.540Z,31.30
2018-08-23T17:07:22.830Z,31.20
2018-08-23T17:10:27.216Z,31.20
2018-08-23T17:13:36.481Z,31.10
2018-08-23T17:16:46.170Z,31.00
2018-08-23T17:19:50.459Z,30.90
2018-08-23T17:22:54.935Z,30.70
2018-08-23T17:25:59.220Z,30.60
2018-08-23T17:29:03.561Z,30.50
2018-08-23T17:32:08.028Z,30.40
2018-08-23T17:35:14.046Z,30.20
2018-08-23T17:38:18.318Z,30.10
2018-08-23T17:41:22.637Z,30.00
2018-08-23T17:44:27.025Z,29.80
2018-08-23T17:47:31.282Z,29.70
2018-08-23T17:50:35.606Z,29.60
2018-08-23T17:53:39.958Z,29.50
2018-08-23T17:56:44.593Z,29.40
2018-08-23T17:59:49.177Z,29.30
2018-08-23T18:02:53.404Z,29.20
2018-08-23T18:05:57.815Z,29.10
2018-08-23T18:09:08.513Z,29.00
2018-08-23T18:12:13.140Z,28.90
2018-08-23T18:15:17.497Z,28.80
2018-08-23T18:18:22.051Z,28.70
2018-08-23T18:21:26.628Z,28.60
2018-08-23T18:24:36.488Z,28.50
2018-08-23T18:27:41.528Z,28.40
2018-08-23T18:30:50.380Z,28.30
2018-08-23T18:33:55.191Z,28.20
2018-08-23T18:36:59.672Z,28.10
2018-08-23T18:40:04.187Z,28.00
2018-08-23T18:43:08.533Z,27.90
2018-08-23T18:46:12.998Z,27.70
2018-08-23T18:49:17.248Z,27.70
2018-08-23T18:52:22.314Z,27.60
2018-08-23T18:55:27.122Z,27.60
2018-08-23T18:58:31.634Z,27.60
2018-08-23T19:01:36.091Z,27.50
2018-08-23T19:04:40.382Z,27.50
2018-08-23T19:07:44.678Z,27.50
2018-08-23T19:10:49.155Z,27.40
2018-08-23T19:13:53.455Z,27.30
2018-08-23T19:17:02.680Z,27.30
2018-08-23T19:20:08.286Z,27.20
2018-08-23T19:23:12.520Z,27.10
2018-08-23T19:26:16.882Z,27.10
2018-08-23T19:29:21.079Z,27.00
2018-08-23T19:32:25.475Z,26.90
2018-08-23T19:35:29.762Z,26.80
2018-08-23T19:38:33.948Z,26.70
2018-08-23T19:41:38.282Z,26.60
2018-08-23T19:44:47.570Z,26.60
2018-08-23T19:47:55.644Z,26.50
2018-08-23T19:50:59.983Z,26.40
2018-08-23T19:54:04.121Z,26.30
2018-08-23T19:57:07.876Z,26.30
2018-08-23T20:00:12.346Z,26.20
2018-08-23T20:03:18.408Z,26.20
2018-08-23T20:06:35.381Z,26.20
2018-08-23T20:09:40.215Z,26.10
2018-08-23T20:12:44.624Z,26.00
2018-08-23T20:15:49.119Z,26.00
2018-08-23T20:18:53.504Z,25.90
2018-08-23T20:21:58.722Z,25.90
2018-08-23T20:25:11.025Z,25.80
2018-08-23T20:28:15.303Z,25.80
2018-08-23T20:31:20.644Z,25.80
2018-08-23T20:34:26.436Z,25.80
2018-08-23T20:37:31.959Z,25.70
2018-08-23T20:40:36.219Z,25.60
2018-08-23T20:43:40.625Z,25.60
2018-08-23T20:46:47.945Z,25.60
2018-08-23T20:49:52.985Z,25.60
2018-08-23T20:52:58.858Z,25.50
2018-08-23T20:56:03.531Z,25.50
2018-08-23T20:59:08.569Z,25.40
2018-08-23T21:02:12.684Z,25.30
2018-08-23T21:05:17.138Z,25.30
2018-08-23T21:08:21.609Z,25.20
2018-08-23T21:11:25.952Z,25.10
2018-08-23T21:14:30.286Z,25.00
2018-08-23T21:17:34.560Z,25.00
2018-08-23T21:20:39.403Z,24.90
2018-08-23T21:23:43.897Z,24.80
2018-08-23T21:26:48.739Z,24.80
2018-08-23T21:29:53.155Z,24.80
2018-08-23T21:32:57.579Z,24.70
2018-08-23T21:36:01.940Z,24.70
2018-08-23T21:39:09.204Z,24.60
2018-08-23T21:42:14.181Z,24.70
2018-08-23T21:45:18.792Z,24.60
2018-08-23T21:48:23.389Z,24.60
2018-08-23T21:51:28.413Z,24.60
2018-08-23T21:54:33.067Z,24.60
2018-08-23T21:57:37.614Z,24.50
2018-08-23T22:00:47.138Z,24.50
2018-08-23T22:03:51.919Z,24.50
2018-08-23T22:06:56.251Z,24.50
2018-08-23T22:10:00.669Z,24.60
2018-08-23T22:13:05.217Z,24.50
2018-08-23T22:16:09.559Z,24.50
2018-08-23T22:19:13.947Z,24.50
2018-08-23T22:22:18.202Z,24.50
2018-08-23T22:25:22.159Z,24.40
2018-08-23T22:28:26.298Z,24.40
2018-08-23T22:31:30.449Z,24.30
2018-08-23T22:34:34.767Z,24.30
2018-08-23T22:37:39.224Z,24.20
2018-08-23T22:40:43.663Z,24.20
2018-08-23T22:43:47.941Z,24.20
2018-08-23T22:46:52.437Z,24.10
2018-08-23T22:49:56.816Z,24.10
2018-08-23T22:53:01.273Z,24.00
2018-08-23T22:56:05.740Z,24.00
2018-08-23T22:59:10.379Z,24.00
2018-08-23T23:02:21.952Z,23.90
2018-08-23T23:05:26.285Z,23.90
2018-08-23T23:08:30.154Z,23.90
2018-08-23T23:11:34.251Z,23.90
2018-08-23T23:14:38.253Z,23.90
2018-08-23T23:17:42.462Z,23.90
2018-08-23T23:20:46.455Z,23.80
2018-08-23T23:23:50.377Z,23.80
2018-08-23T23:26:55.532Z,23.70
2018-08-23T23:30:00.407Z,23.70
2018-08-23T23:33:04.772Z,23.60
2018-08-23T23:36:09.303Z,23.60
2018-08-23T23:39:13.577Z,23.60
2018-08-23T23:42:17.468Z,23.60
2018-08-23T23:45:21.404Z,23.60
2018-08-23T23:48:25.811Z,23.50
2018-08-23T23:51:30.182Z,23.50
2018-08-23T23:54:34.458Z,23.50
2018-08-23T23:57:38.841Z,23.50
